Terminal Aerodrome Forecast
Issued by NWS Wakefield, VA

Home | Current Version | Previous Version | Text Only | Print | Product List | Glossary On
Versions: 1 2 3 4 5 6 7 8 9 10 11 12 13 14 15 16 17 18 19
705
FTUS41 KAKQ 031139
TAFECG
TAF
KECG 031139Z 0312/0412 20006KT P6SM -RA OVC025
     FM031400 23012KT 5SM -SHRA OVC015
     FM031800 23011KT P6SM BKN035
     FM032100 23007KT P6SM VCSH BKN050
     FM040700 33003KT 3SM BR OVC015=

USA.gov is the U.S. government's official web portal to all federal, state and local government web resources and services.